Time;durP1;ratioP1;P1;durP2;ratioP2;P2;SDS_P1;SDS_P2;PMS_P1;PMS_P2;Temp;Humidity;BMP_temperature;BMP_pressure;BME280_temperature;BME280_humidity;BME280_pressure;Samples;Min_cycle;Max_cycle;Signal;HPM_P1;HPM_P2
2022/09/01 00:02:07;;;;;;;3.20;1.73;;;;;;;12.79;68.39;100972.44;5099876;28;20483;-66
2022/09/01 00:04:37;;;;;;;2.20;2.00;;;;;;;12.81;68.41;100981.19;5101107;28;20453;-66
2022/09/01 00:07:04;;;;;;;3.53;2.00;;;;;;;12.80;68.54;100978.66;5100461;27;21032;-66
2022/09/01 00:09:31;;;;;;;2.93;2.00;;;;;;;12.78;68.64;100981.47;5100835;28;20475;-66
2022/09/01 00:11:58;;;;;;;2.10;1.60;;;;;;;12.79;68.58;100976.94;5100107;27;20474;-66
2022/09/01 00:14:27;;;;;;;2.97;1.70;;;;;;;12.69;68.62;100970.69;5101009;28;20486;-66
2022/09/01 00:16:56;;;;;;;3.00;2.30;;;;;;;12.63;69.07;100972.94;5098993;27;20567;-66
2022/09/01 00:19:23;;;;;;;5.70;2.20;;;;;;;12.64;69.12;100973.81;5100960;28;20473;-66
2022/09/01 00:21:50;;;;;;;2.30;2.00;;;;;;;12.62;69.12;100981.16;5083483;27;20468;-66
2022/09/01 00:24:17;;;;;;;2.83;1.43;;;;;;;12.57;69.12;100975.34;5081042;28;20486;-66
2022/09/01 00:26:44;;;;;;;1.57;1.47;;;;;;;12.57;69.43;100972.66;5099537;27;20509;-65
2022/09/01 00:29:11;;;;;;;2.33;1.63;;;;;;;12.56;69.17;100973.63;5101613;28;20434;-66
2022/09/01 00:31:38;;;;;;;3.23;1.83;;;;;;;12.55;69.36;100979.97;5099272;27;20501;-66
2022/09/01 00:34:06;;;;;;;6.00;1.43;;;;;;;12.58;69.06;100977.00;5100293;28;20806;-66
2022/09/01 00:36:33;;;;;;;2.93;1.60;;;;;;;12.54;69.46;100980.97;5099842;27;20500;-66
2022/09/01 00:39:00;;;;;;;3.03;1.60;;;;;;;12.48;69.14;100977.00;5100985;28;20482;-66
2022/09/01 00:41:30;;;;;;;2.70;1.40;;;;;;;12.43;69.50;100981.91;5099943;27;20459;-66
2022/09/01 00:43:58;;;;;;;2.33;1.40;;;;;;;12.32;69.80;100979.31;5100190;28;20431;-65
2022/09/01 00:46:27;;;;;;;5.10;1.67;;;;;;;12.28;70.16;100975.22;5099877;27;20483;-65
2022/09/01 00:48:59;;;;;;;1.80;1.37;;;;;;;12.28;70.27;100970.69;5103003;28;20446;-66
2022/09/01 00:51:28;;;;;;;3.43;1.70;;;;;;;12.22;70.16;100976.56;5103365;27;20842;-65
2022/09/01 00:53:55;;;;;;;1.57;1.33;;;;;;;12.24;70.29;100970.09;5103989;28;20530;-65
2022/09/01 00:56:22;;;;;;;4.23;1.70;;;;;;;12.27;70.07;100971.66;5103529;27;21016;-65
2022/09/01 00:58:50;;;;;;;4.50;1.53;;;;;;;12.18;70.81;100983.19;5104440;28;20452;-65
2022/09/01 01:01:17;;;;;;;2.40;1.50;;;;;;;12.03;71.78;100970.16;5103126;27;20553;-66
2022/09/01 01:03:46;;;;;;;1.90;1.33;;;;;;;12.02;71.80;100972.94;5103872;28;20428;-66
2022/09/01 01:06:15;;;;;;;2.67;1.83;;;;;;;11.99;71.82;100971.38;5103249;27;20871;-66
2022/09/01 01:08:48;;;;;;;3.70;1.50;;;;;;;11.95;71.86;100974.47;5104771;28;20438;-66
2022/09/01 01:11:16;;;;;;;4.03;1.63;;;;;;;11.94;72.12;100973.59;5101216;27;20855;-65
2022/09/01 01:13:51;;;;;;;4.33;2.00;;;;;;;11.89;71.79;100962.41;5103814;28;20896;-65
2022/09/01 01:16:18;;;;;;;3.40;1.70;;;;;;;11.88;72.33;100968.75;5060887;28;20488;-66
2022/09/01 01:18:45;;;;;;;2.40;1.70;;;;;;;11.86;72.24;100965.34;5067574;28;20475;-66
2022/09/01 01:24:06;;;;;;;3.30;2.07;;;;;;;11.72;72.74;100974.56;5103699;28;20406;-66
2022/09/01 01:26:34;;;;;;;2.33;1.67;;;;;;;11.69;72.75;100956.91;5103121;27;20479;-65
2022/09/01 01:29:01;;;;;;;3.17;1.80;;;;;;;11.74;72.85;100966.41;5103853;28;20841;-66
2022/09/01 01:31:29;;;;;;;2.50;1.53;;;;;;;11.73;72.82;100957.50;5102121;27;21073;-65
2022/09/01 01:33:58;;;;;;;2.20;1.70;;;;;;;11.67;72.85;100961.56;5103652;28;20562;-66
2022/09/01 01:36:31;;;;;;;1.60;1.50;;;;;;;11.62;72.81;100955.75;5102764;27;20490;-65
2022/09/01 01:39:01;;;;;;;3.03;1.80;;;;;;;11.67;73.11;100972.28;5103583;28;20465;-65
2022/09/01 01:41:28;;;;;;;5.47;2.20;;;;;;;11.64;72.98;100969.84;5102486;27;20527;-65
2022/09/01 01:43:58;;;;;;;5.20;1.60;;;;;;;11.63;73.38;100969.97;5103257;28;20435;-65
2022/09/01 01:46:25;;;;;;;1.67;1.30;;;;;;;11.60;73.39;100972.94;5102309;27;20482;-65
2022/09/01 01:48:54;;;;;;;3.13;1.63;;;;;;;11.59;73.46;100972.06;5102938;28;20455;-65
2022/09/01 01:51:23;;;;;;;4.50;2.17;;;;;;;11.52;73.25;100978.91;5102574;27;20481;-65
2022/09/01 01:53:51;;;;;;;1.70;1.60;;;;;;;11.52;73.80;100973.56;5101243;28;20499;-65
2022/09/01 01:56:18;;;;;;;5.37;1.60;;;;;;;11.53;73.21;100974.41;5101466;27;20502;-65
2022/09/01 01:58:45;;;;;;;2.67;1.73;;;;;;;11.48;74.04;100978.31;5102857;28;20474;-65
2022/09/01 02:01:13;;;;;;;2.30;1.77;;;;;;;11.40;74.13;100974.59;5102101;27;20475;-64
2022/09/01 02:03:40;;;;;;;2.23;1.80;;;;;;;11.33;73.93;100978.75;5102899;28;20428;-65
2022/09/01 02:06:08;;;;;;;3.10;2.07;;;;;;;11.24;74.10;100975.03;5102329;27;20507;-64
2022/09/01 02:08:36;;;;;;;3.10;1.67;;;;;;;11.26;74.37;100973.06;5095806;28;20500;-65
2022/09/01 02:11:04;;;;;;;3.63;2.40;;;;;;;11.21;74.54;100976.09;5102320;27;20471;-65
2022/09/01 02:13:31;;;;;;;6.30;2.00;;;;;;;11.11;74.91;100977.88;5102540;28;20508;-65
2022/09/01 02:16:00;;;;;;;3.47;1.70;;;;;;;11.15;74.52;100983.81;5101248;27;20908;-65
2022/09/01 02:18:33;;;;;;;3.17;1.80;;;;;;;11.19;74.79;100983.41;5102372;28;20479;-65
2022/09/01 02:20:59;;;;;;;3.33;1.60;;;;;;;11.22;74.46;100975.16;5102147;28;20482;-65
2022/09/01 02:23:27;;;;;;;1.93;1.60;;;;;;;11.19;74.71;100972.72;5102781;28;20443;-65
2022/09/01 02:25:56;;;;;;;1.87;1.60;;;;;;;11.18;74.68;100979.06;5101748;27;20466;-65
2022/09/01 02:28:27;;;;;;;3.63;1.67;;;;;;;11.11;74.27;100973.38;5102173;28;20443;-65
2022/09/01 02:30:56;;;;;;;1.60;1.50;;;;;;;11.21;74.56;100969.91;5102108;27;20968;-65
2022/09/01 02:33:24;;;;;;;3.17;2.00;;;;;;;11.10;74.53;100974.31;5101820;28;20451;-65
2022/09/01 02:35:55;;;;;;;3.43;1.20;;;;;;;11.06;74.81;100972.06;5101842;27;20507;-64
2022/09/01 02:38:28;;;;;;;1.87;1.53;;;;;;;11.02;74.81;100970.59;5101774;28;20467;-64
2022/09/01 02:40:56;;;;;;;1.97;1.40;;;;;;;11.01;74.76;100968.91;5101245;27;20475;-64
2022/09/01 02:43:26;;;;;;;2.80;1.50;;;;;;;10.97;75.00;100968.31;5101946;28;20451;-64
2022/09/01 02:45:54;;;;;;;2.60;2.07;;;;;;;10.98;75.09;100967.31;5101646;27;20475;-64
2022/09/01 02:48:22;;;;;;;4.07;1.90;;;;;;;10.99;74.90;100968.16;5100904;28;20464;-65
2022/09/01 02:50:49;;;;;;;2.00;1.63;;;;;;;10.98;74.80;100964.63;5101626;27;20471;-64
2022/09/01 02:53:18;;;;;;;2.23;1.83;;;;;;;10.99;74.80;100968.16;5101847;28;20443;-65
2022/09/01 02:55:45;;;;;;;3.40;1.73;;;;;;;11.03;74.47;100962.44;5099688;27;21009;-65
2022/09/01 02:58:18;;;;;;;3.00;1.70;;;;;;;11.01;74.23;100950.16;5101149;28;20464;-65
2022/09/01 03:00:46;;;;;;;4.90;1.80;;;;;;;11.00;74.44;100957.31;5101204;27;20502;-64
2022/09/01 03:03:16;;;;;;;4.23;1.80;;;;;;;10.95;74.47;100962.19;5101450;28;20451;-65
2022/09/01 03:05:43;;;;;;;1.73;1.30;;;;;;;10.90;74.70;100961.72;5100994;27;20475;-64
2022/09/01 03:08:14;;;;;;;4.00;1.77;;;;;;;10.89;74.72;100968.06;5101711;28;20439;-64
2022/09/01 03:10:45;;;;;;;4.80;2.13;;;;;;;10.87;74.89;100957.50;5100540;27;20477;-64
2022/09/01 03:13:14;;;;;;;2.00;1.40;;;;;;;10.81;75.28;100957.97;5101301;28;20584;-64
2022/09/01 03:15:41;;;;;;;3.63;2.30;;;;;;;10.68;75.75;100954.63;5100892;27;20504;-64
2022/09/01 03:18:10;;;;;;;2.50;1.70;;;;;;;10.63;75.91;100959.47;5100396;28;20481;-64
2022/09/01 03:20:38;;;;;;;2.07;1.80;;;;;;;10.66;75.71;100957.41;5101365;27;20509;-64
2022/09/01 03:23:07;;;;;;;5.23;2.00;;;;;;;10.68;75.69;100959.97;5101337;28;20466;-64
2022/09/01 03:25:35;;;;;;;2.10;1.53;;;;;;;10.65;75.86;100957.53;5101172;27;20473;-64
2022/09/01 03:28:04;;;;;;;1.93;1.60;;;;;;;10.62;76.13;100955.09;5101218;28;20467;-64
2022/09/01 03:30:33;;;;;;;4.13;1.83;;;;;;;10.63;75.72;100956.81;5101280;27;20479;-65
2022/09/01 03:33:01;;;;;;;2.97;1.80;;;;;;;10.62;75.98;100952.44;5100957;28;20572;-65
2022/09/01 03:35:30;;;;;;;3.30;2.00;;;;;;;10.60;76.04;100951.69;5100368;27;20463;-65
2022/09/01 03:37:57;;;;;;;3.93;2.07;;;;;;;10.61;76.13;100954.25;5101424;28;20439;-65
2022/09/01 03:40:26;;;;;;;3.87;1.90;;;;;;;10.61;76.19;100953.41;5100786;27;20479;-65
2022/09/01 03:42:53;;;;;;;5.80;2.00;;;;;;;10.51;76.26;100947.94;5100623;28;20837;-65
2022/09/01 03:45:24;;;;;;;3.33;1.70;;;;;;;10.49;76.61;100955.25;5099816;27;20459;-65
2022/09/01 03:47:51;;;;;;;2.20;2.00;;;;;;;10.46;76.41;100947.47;5100496;28;20914;-65
2022/09/01 03:50:21;;;;;;;1.60;1.50;;;;;;;10.44;76.42;100946.75;5101099;27;20949;-66
2022/09/01 03:52:50;;;;;;;3.63;2.27;;;;;;;10.45;76.46;100946.63;5101197;28;20463;-66
2022/09/01 03:55:22;;;;;;;2.07;1.70;;;;;;;10.41;76.68;100958.50;5099370;27;20475;-66
2022/09/01 03:57:48;;;;;;;2.00;1.80;;;;;;;10.38;76.69;100952.56;5101605;28;20436;-66
2022/09/01 04:00:19;;;;;;;4.60;2.13;;;;;;;10.38;76.92;100952.56;5099036;28;20459;-65
2022/09/01 04:02:49;;;;;;;3.23;1.50;;;;;;;10.42;76.93;100959.38;5087552;28;20447;-64
2022/09/01 04:05:17;;;;;;;2.33;1.77;;;;;;;10.42;76.84;100954.03;5099503;27;20916;-65
2022/09/01 04:07:47;;;;;;;3.57;2.00;;;;;;;10.40;76.74;100962.19;5091673;28;20442;-66
2022/09/01 04:10:14;;;;;;;3.73;2.10;;;;;;;10.40;76.54;100962.19;5100357;27;20527;-66
2022/09/01 04:12:41;;;;;;;2.17;1.97;;;;;;;10.34;76.68;100963.50;5101229;28;20431;-66
2022/09/01 04:15:09;;;;;;;3.53;1.97;;;;;;;10.31;76.61;100966.44;5100033;27;20556;-65
2022/09/01 04:20:22;;;;;;;1.70;1.60;;;;;;;10.25;76.58;100966.03;5100994;27;20433;-65
2022/09/01 04:22:49;;;;;;;2.83;1.97;;;;;;;10.24;76.52;100967.00;5099878;28;20454;-65
2022/09/01 04:25:17;;;;;;;2.70;2.00;;;;;;;10.22;76.99;100964.44;5100504;27;20972;-65
2022/09/01 04:27:46;;;;;;;3.53;1.90;;;;;;;10.25;76.92;100966.03;5091422;28;20439;-65
2022/09/01 04:30:13;;;;;;;3.37;2.43;;;;;;;10.30;76.74;100963.84;5090096;28;20440;-65
2022/09/01 04:32:40;;;;;;;3.73;2.40;;;;;;;10.31;76.97;100968.19;5064030;28;20461;-65
2022/09/01 04:35:10;;;;;;;5.40;2.40;;;;;;;10.29;76.74;100962.97;5063636;28;20520;-65
2022/09/01 04:37:38;;;;;;;6.27;2.30;;;;;;;10.29;76.90;100967.47;5093987;28;20447;-65
2022/09/01 04:40:06;;;;;;;3.77;2.13;;;;;;;10.28;76.56;100963.97;5095674;28;20458;-64
2022/09/01 04:42:35;;;;;;;3.43;2.40;;;;;;;10.26;76.40;100965.03;5094002;28;20459;-64
2022/09/01 04:45:03;;;;;;;4.63;2.33;;;;;;;10.20;76.85;100962.88;5097827;28;20458;-65
2022/09/01 04:47:29;;;;;;;4.20;2.57;;;;;;;10.24;77.18;100967.00;5082008;28;20540;-65
2022/09/01 04:49:57;;;;;;;4.60;2.20;;;;;;;10.29;77.36;100964.81;5085544;28;20470;-65
2022/09/01 04:52:24;;;;;;;4.43;1.77;;;;;;;10.35;77.81;100962.53;5091744;28;20494;-65
2022/09/01 04:54:53;;;;;;;4.30;1.97;;;;;;;11.14;77.78;100966.06;5085150;28;20525;-65
2022/09/01 04:57:20;;;;;;;3.40;2.03;;;;;;;11.75;75.23;100957.38;5103467;28;20486;-65
2022/09/01 04:59:46;;;;;;;2.97;2.40;;;;;;;12.19;72.29;100960.78;5100186;28;20443;-64
2022/09/01 05:02:13;;;;;;;3.60;2.43;;;;;;;12.49;70.35;100956.38;5103668;28;20470;-66
2022/09/01 05:04:45;;;;;;;2.80;1.90;;;;;;;12.94;68.62;100950.56;5085969;28;20432;-65
2022/09/01 05:07:13;;;;;;;4.43;2.07;;;;;;;13.96;64.58;100954.63;5089450;28;20531;-65
2022/09/01 05:09:40;;;;;;;2.20;1.90;;;;;;;14.95;60.10;100952.25;5098930;28;20444;-77
2022/09/01 05:12:11;;;;;;;5.40;2.20;;;;;;;15.66;57.12;100949.69;5084430;28;21417;-64
2022/09/01 05:14:41;;;;;;;4.03;1.90;;;;;;;16.08;55.14;100962.50;5083908;28;20476;-66
2022/09/01 05:17:09;;;;;;;2.10;1.63;;;;;;;16.55;53.81;100956.66;5083105;28;20476;-65
2022/09/01 05:19:36;;;;;;;4.73;1.83;;;;;;;16.06;53.24;100957.25;5099882;28;20507;-66
2022/09/01 05:22:03;;;;;;;2.90;1.70;;;;;;;15.96;53.80;100956.53;5095788;28;20471;-66
2022/09/01 05:24:30;;;;;;;3.93;1.70;;;;;;;17.06;50.99;100957.53;5084179;28;20940;-66
2022/09/01 05:26:59;;;;;;;3.80;2.30;;;;;;;17.98;48.30;100951.97;5082673;27;20480;-66
2022/09/01 05:29:28;;;;;;;4.83;1.87;;;;;;;18.25;47.16;100960.72;5082818;28;20501;-66
2022/09/01 05:31:55;;;;;;;3.40;1.60;;;;;;;17.81;48.27;100961.97;5082748;28;21324;-63
2022/09/01 05:34:25;;;;;;;1.50;1.20;;;;;;;18.18;47.69;100957.88;5082247;28;20437;-63
2022/09/01 05:36:54;;;;;;;2.30;1.77;;;;;;;19.59;44.52;100956.09;5082551;28;20999;-65
2022/09/01 05:39:21;;;;;;;2.50;1.90;;;;;;;19.48;44.05;100960.09;5082914;28;20437;-65
2022/09/01 05:41:48;;;;;;;5.70;2.03;;;;;;;19.53;44.81;100954.97;5082320;28;20502;-65
2022/09/01 05:44:15;;;;;;;3.37;1.87;;;;;;;19.85;43.34;100958.44;5082897;28;20432;-65
2022/09/01 05:46:46;;;;;;;3.83;1.93;;;;;;;19.57;43.59;100961.72;5081004;28;20571;-65
2022/09/01 05:49:14;;;;;;;2.60;1.93;;;;;;;19.97;43.48;100960.72;5080249;28;20532;-65
2022/09/01 05:51:42;;;;;;;5.47;1.50;;;;;;;18.98;45.37;100956.03;5081901;28;20501;-65
2022/09/01 05:54:10;;;;;;;3.27;1.87;;;;;;;18.81;45.85;100955.25;5082319;28;20440;-65
2022/09/01 05:56:41;;;;;;;4.00;2.20;;;;;;;19.49;44.13;100959.06;5081554;28;20512;-65
2022/09/01 05:59:09;;;;;;;3.43;1.70;;;;;;;20.01;43.90;100959.31;5082616;28;20440;-65
2022/09/01 06:01:39;;;;;;;3.67;1.90;;;;;;;20.72;42.22;100959.72;5074073;28;20476;-66
2022/09/01 06:04:09;;;;;;;2.63;1.63;;;;;;;21.01;41.21;100957.97;5071967;28;20441;-65
2022/09/01 06:06:39;;;;;;;1.90;1.70;;;;;;;21.69;40.09;100960.34;5072765;28;20477;-65
2022/09/01 06:09:09;;;;;;;6.50;1.97;;;;;;;22.77;37.90;100962.69;5062615;28;20451;-65
2022/09/01 06:11:35;;;;;;;4.10;2.17;;;;;;;22.91;37.43;100962.56;5074036;28;20473;-65
2022/09/01 06:14:02;;;;;;;4.60;2.00;;;;;;;23.18;37.32;100953.63;5082051;28;20438;-65
2022/09/01 06:16:29;;;;;;;3.30;1.93;;;;;;;23.26;37.38;100957.00;5080442;28;20497;-65
2022/09/01 06:18:58;;;;;;;3.00;1.53;;;;;;;21.62;40.61;100965.72;5084486;28;20495;-66
2022/09/01 06:21:27;;;;;;;3.83;1.90;;;;;;;23.21;37.51;100958.66;5096301;28;20473;-65
2022/09/01 06:23:58;;;;;;;3.30;1.67;;;;;;;23.02;37.34;100965.69;5097202;28;20443;-65
2022/09/01 06:26:27;;;;;;;4.50;1.43;;;;;;;23.87;36.65;100952.44;5079707;28;20488;-65
2022/09/01 06:28:55;;;;;;;6.57;2.30;;;;;;;22.82;38.33;100968.38;5081759;28;20485;-65
2022/09/01 06:31:23;;;;;;;5.20;1.50;;;;;;;22.90;38.48;100960.84;5081684;28;20493;-65
2022/09/01 06:33:52;;;;;;;5.10;1.60;;;;;;;22.43;39.47;100965.28;5079774;28;20462;-66
2022/09/01 06:36:20;;;;;;;4.53;1.97;;;;;;;22.90;38.84;100960.84;5078140;28;20540;-67
2022/09/01 06:38:51;;;;;;;5.13;2.10;;;;;;;23.11;38.83;100959.91;5081267;28;21020;-66
2022/09/01 06:41:19;;;;;;;4.67;1.70;;;;;;;23.89;36.99;100961.25;5080069;28;20474;-67
2022/09/01 06:43:47;;;;;;;9.40;1.83;;;;;;;23.09;38.32;100969.34;5081764;28;20446;-68
2022/09/01 06:46:13;;;;;;;4.23;1.60;;;;;;;22.76;39.31;100978.22;5080301;27;20478;-67
2022/09/01 06:48:45;;;;;;;5.20;1.63;;;;;;;24.34;36.56;100971.47;5081012;28;20949;-67
2022/09/01 06:51:14;;;;;;;4.43;1.40;;;;;;;24.22;36.30;100976.78;5081702;28;20485;-66
2022/09/01 06:53:41;;;;;;;5.43;1.60;;;;;;;23.42;37.62;100974.03;5089973;28;20961;-67
2022/09/01 06:56:11;;;;;;;4.40;1.60;;;;;;;24.38;36.39;100983.66;5080595;28;20477;-66
2022/09/01 06:58:40;;;;;;;4.37;1.40;;;;;;;24.16;36.89;100978.44;5080316;28;20455;-67
2022/09/01 07:01:14;;;;;;;4.63;1.80;;;;;;;24.15;37.24;100979.50;5080927;28;20829;-66
2022/09/01 07:03:41;;;;;;;3.10;1.50;;;;;;;23.68;38.24;100978.66;5080515;28;20462;-67
2022/09/01 07:06:09;;;;;;;3.20;1.80;;;;;;;23.00;39.49;100986.88;5087315;28;20493;-67
2022/09/01 07:08:38;;;;;;;1.97;1.27;;;;;;;24.70;36.71;100981.88;5079821;28;20483;-67
2022/09/01 07:11:06;;;;;;;2.70;1.70;;;;;;;24.23;36.99;100989.34;5076632;28;20521;-67
2022/09/01 07:13:35;;;;;;;2.10;1.23;;;;;;;25.06;34.57;100996.06;5079939;28;20463;-67
2022/09/01 07:16:05;;;;;;;2.40;1.47;;;;;;;24.67;35.98;100984.22;5079449;28;20487;-67
2022/09/01 07:18:33;;;;;;;4.77;1.93;;;;;;;25.77;32.95;100991.41;5078172;28;20465;-67
2022/09/01 07:21:06;;;;;;;2.97;1.20;;;;;;;25.44;34.01;100987.03;5100118;28;20582;-67
2022/09/01 07:23:32;;;;;;;4.03;1.20;;;;;;;25.87;32.76;100994.50;5099882;28;20465;-65
2022/09/01 07:25:59;;;;;;;2.17;1.10;;;;;;;27.35;30.65;100986.31;5080891;28;20466;-66
2022/09/01 07:28:31;;;;;;;2.93;1.47;;;;;;;25.90;32.96;100986.66;5100596;28;20434;-66
2022/09/01 07:31:00;;;;;;;3.00;1.00;;;;;;;26.63;31.90;100990.59;5085716;28;20470;-66
2022/09/01 07:33:29;;;;;;;2.50;1.20;;;;;;;27.68;30.48;100983.03;5078677;28;20558;-66
2022/09/01 07:35:56;;;;;;;1.97;1.30;;;;;;;28.08;30.15;100982.38;5096544;28;20532;-67
2022/09/01 07:38:23;;;;;;;2.00;1.10;;;;;;;26.30;32.59;100990.97;5080421;28;20512;-66
2022/09/01 07:40:52;;;;;;;1.57;0.90;;;;;;;27.09;31.30;100988.31;5077915;28;20483;-66
2022/09/01 07:43:21;;;;;;;3.97;1.07;;;;;;;27.00;31.58;100982.31;5084640;28;20450;-65
2022/09/01 07:45:49;;;;;;;2.43;1.30;;;;;;;27.54;30.65;100979.66;5099386;28;20469;-65
2022/09/01 07:48:19;;;;;;;1.43;0.87;;;;;;;28.28;30.17;100986.66;5098845;28;20480;-65
2022/09/01 07:50:48;;;;;;;1.37;1.00;;;;;;;28.30;29.02;100987.28;5087088;28;20471;-66
2022/09/01 07:53:17;;;;;;;1.47;1.20;;;;;;;27.61;30.64;100993.28;5080240;28;20446;-67
2022/09/01 07:55:44;;;;;;;2.80;1.43;;;;;;;26.59;31.86;100988.50;5077065;28;20479;-66
2022/09/01 07:58:10;;;;;;;3.47;1.17;;;;;;;26.89;32.24;100993.22;5083489;28;20514;-67
2022/09/01 08:00:38;;;;;;;1.80;1.30;;;;;;;28.73;29.50;100988.75;5083471;28;20490;-66
2022/09/01 08:03:05;;;;;;;1.80;1.00;;;;;;;27.37;30.84;100984.97;5082384;28;20462;-65
2022/09/01 08:05:33;;;;;;;4.00;1.37;;;;;;;27.76;30.71;100981.84;5082811;28;20934;-66
2022/09/01 08:08:00;;;;;;;2.17;1.00;;;;;;;29.05;29.14;100985.56;5083058;28;20513;-67
2022/09/01 08:10:27;;;;;;;3.33;1.40;;;;;;;28.87;28.98;100984.66;5082249;27;20499;-66
2022/09/01 08:12:56;;;;;;;2.03;1.20;;;;;;;30.44;26.23;100985.97;5064010;28;20440;-66
2022/09/01 08:15:23;;;;;;;5.63;1.77;;;;;;;28.94;28.93;100984.53;5062514;28;20491;-66
2022/09/01 08:17:50;;;;;;;3.50;1.23;;;;;;;27.71;30.69;100985.31;5073414;28;20853;-66
2022/09/01 08:20:17;;;;;;;3.80;1.23;;;;;;;28.90;29.20;100986.94;5082870;28;20985;-66
2022/09/01 08:22:45;;;;;;;2.97;1.60;;;;;;;28.46;29.58;100986.50;5084086;28;20432;-66
2022/09/01 08:25:14;;;;;;;2.07;1.40;;;;;;;29.45;28.29;100992.91;5081812;28;20454;-66
2022/09/01 08:27:41;;;;;;;2.57;1.23;;;;;;;31.08;26.46;100988.16;5084425;28;20502;-66
2022/09/01 08:30:11;;;;;;;5.30;1.70;;;;;;;29.04;29.43;100992.97;5081312;28;20469;-66
2022/09/01 08:32:41;;;;;;;3.23;1.20;;;;;;;28.68;29.67;100991.44;5082198;28;20447;-66
2022/09/01 08:35:09;;;;;;;2.30;1.33;;;;;;;29.85;27.65;100981.75;5082243;28;20858;-66
2022/09/01 08:37:36;;;;;;;2.53;1.00;;;;;;;29.39;28.90;100988.38;5081670;28;20427;-64
2022/09/01 08:40:05;;;;;;;2.33;1.20;;;;;;;29.20;28.46;100988.63;5081555;28;20544;-64
2022/09/01 08:42:47;;;;;;;6.30;1.53;;;;;;;28.80;29.42;100992.22;5082257;28;20538;-66
2022/09/01 08:45:21;;;;;;;4.50;1.20;;;;;;;28.33;30.04;100984.88;5081716;27;20435;-66
2022/09/01 08:47:48;;;;;;;2.40;0.93;;;;;;;29.24;28.70;100983.47;5086420;28;20466;-66
2022/09/01 08:50:19;;;;;;;4.00;1.73;;;;;;;29.95;27.76;100978.34;5102600;28;20439;-65
2022/09/01 08:52:50;;;;;;;3.40;1.17;;;;;;;28.90;29.19;100978.66;5087160;28;20442;-66
2022/09/01 08:55:24;;;;;;;2.43;1.00;;;;;;;29.03;29.12;100984.97;5085381;28;20447;-66
2022/09/01 08:57:54;;;;;;;2.93;1.17;;;;;;;28.89;29.39;100976.97;5083389;28;20454;-67
2022/09/01 09:00:23;;;;;;;1.33;0.80;;;;;;;28.81;28.69;100979.28;5082205;28;21086;-66
2022/09/01 09:02:57;;;;;;;1.67;1.10;;;;;;;29.71;28.56;100985.91;5082221;28;20457;-66
2022/09/01 09:05:38;;;;;;;2.43;1.10;;;;;;;28.44;29.68;100983.19;5082800;28;20458;-66
2022/09/01 09:08:43;;;;;;;2.43;1.37;;;;;;;28.74;30.01;100971.16;5079847;28;20444;-65
2022/09/01 09:11:23;;;;;;;3.53;1.10;;;;;;;29.77;28.10;100982.22;5061994;28;20471;-66
2022/09/01 09:13:58;;;;;;;2.50;0.80;;;;;;;29.13;28.59;100968.63;5080800;28;20549;-66
2022/09/01 09:16:27;;;;;;;1.37;0.80;;;;;;;29.42;28.75;100974.94;5080831;28;20580;-66
2022/09/01 09:18:56;;;;;;;1.70;0.80;;;;;;;29.80;28.12;100973.41;5082196;28;20455;-65
2022/09/01 09:21:27;;;;;;;1.97;1.13;;;;;;;29.56;28.00;100975.47;5082380;28;20501;-66
2022/09/01 09:23:58;;;;;;;2.50;0.97;;;;;;;28.93;28.69;100967.16;5094171;28;20466;-65
2022/09/01 09:26:26;;;;;;;2.43;1.20;;;;;;;30.28;27.82;100973.03;5082064;28;20494;-66
2022/09/01 09:28:53;;;;;;;1.40;1.00;;;;;;;29.36;28.06;100969.63;5083161;28;20435;-65
2022/09/01 09:31:29;;;;;;;2.03;0.87;;;;;;;29.17;28.55;100967.09;5080245;28;20504;-65
2022/09/01 09:33:56;;;;;;;3.47;0.73;;;;;;;29.24;28.72;100964.19;5082176;28;20484;-66
2022/09/01 09:36:29;;;;;;;1.67;0.90;;;;;;;29.73;28.09;100958.13;5082246;27;20521;-65
2022/09/01 09:39:08;;;;;;;5.33;1.03;;;;;;;30.63;26.60;100956.13;5097614;28;20451;-66
2022/09/01 09:41:36;;;;;;;2.00;0.70;;;;;;;30.35;25.36;100962.69;5081450;28;20475;-66
2022/09/01 09:44:06;;;;;;;2.90;1.10;;;;;;;30.23;25.06;100957.22;5081796;28;20462;-66
2022/09/01 09:46:38;;;;;;;5.00;0.97;;;;;;;30.59;25.83;100952.22;5080327;28;20494;-65
2022/09/01 09:49:18;;;;;;;1.73;0.90;;;;;;;30.62;26.21;100956.38;5081568;28;20514;-66
2022/09/01 09:51:48;;;;;;;2.83;1.13;;;;;;;27.94;29.23;100951.53;5081447;28;20914;-66
2022/09/01 09:54:18;;;;;;;3.13;0.80;;;;;;;28.40;28.56;100950.88;5060642;28;20464;-66
2022/09/01 09:56:47;;;;;;;2.27;1.10;;;;;;;27.58;30.97;100956.13;5061385;28;20484;-65
2022/09/01 09:59:28;;;;;;;2.83;1.10;;;;;;;27.27;31.30;100948.16;5076729;28;20427;-66
2022/09/01 10:01:58;;;;;;;5.80;1.30;;;;;;;28.55;28.63;100943.81;5078920;28;20477;-65
2022/09/01 10:04:33;;;;;;;4.50;1.10;;;;;;;26.41;31.06;100942.75;5062112;28;20458;-66
2022/09/01 10:07:00;;;;;;;1.80;0.87;;;;;;;26.78;30.99;100948.22;5064132;28;20533;-66
2022/09/01 10:09:37;;;;;;;4.50;0.80;;;;;;;28.20;27.01;100932.88;5077248;28;20474;-66
2022/09/01 10:12:05;;;;;;;1.47;0.83;;;;;;;29.54;26.37;100941.81;5080996;28;20537;-67
2022/09/01 10:14:35;;;;;;;1.90;0.60;;;;;;;30.39;24.80;100942.56;5082306;28;20451;-67
2022/09/01 10:17:04;;;;;;;1.67;0.70;;;;;;;26.06;31.06;100932.38;5079642;28;20506;-67
2022/09/01 10:19:33;;;;;;;3.00;0.70;;;;;;;25.40;32.50;100936.50;5081950;28;20431;-67
2022/09/01 10:22:00;;;;;;;1.07;0.67;;;;;;;25.32;33.00;100926.66;5079559;28;20533;-68
2022/09/01 10:24:29;;;;;;;2.00;0.90;;;;;;;26.10;31.56;100933.59;5079819;28;20494;-68
2022/09/01 10:26:59;;;;;;;1.70;0.83;;;;;;;27.29;29.20;100926.81;5080451;28;20974;-68
2022/09/01 10:29:31;;;;;;;5.03;0.80;;;;;;;28.48;27.65;100921.09;5081317;28;21034;-69
2022/09/01 10:32:00;;;;;;;1.73;1.07;;;;;;;29.75;23.59;100922.88;5073209;28;20487;-68
2022/09/01 10:34:28;;;;;;;1.63;0.90;;;;;;;30.09;22.28;100920.09;5081362;28;20432;-67
2022/09/01 10:36:55;;;;;;;2.03;0.80;;;;;;;29.71;22.96;100919.78;5080250;28;20475;-67
2022/09/01 10:39:22;;;;;;;3.93;1.00;;;;;;;27.07;26.91;100923.78;5080435;28;20435;-66
2022/09/01 10:41:55;;;;;;;1.50;1.00;;;;;;;25.05;29.99;100899.47;5080388;28;20481;-68
2022/09/01 10:44:25;;;;;;;4.47;0.90;;;;;;;24.23;31.98;100912.84;5081281;28;20446;-67
2022/09/01 10:46:53;;;;;;;1.63;0.70;;;;;;;23.74;32.77;100906.00;5081050;28;21339;-66
2022/09/01 10:49:49;;;;;;;2.03;0.70;;;;;;;25.28;31.55;100898.91;5078397;28;20508;-67
2022/09/01 10:52:54;;;;;;;1.27;0.73;;;;;;;26.89;26.13;100909.03;5079110;28;20485;-66
2022/09/01 10:55:24;;;;;;;1.20;0.60;;;;;;;26.94;25.21;100895.44;5079391;28;20434;-67
2022/09/01 10:58:07;;;;;;;1.03;0.60;;;;;;;27.96;22.93;100913.66;5080767;28;20540;-67
2022/09/01 11:00:51;;;;;;;1.67;0.83;;;;;;;28.47;22.57;100899.31;5085793;27;20499;-67
2022/09/01 11:03:59;;;;;;;1.90;0.40;;;;;;;29.03;22.43;100903.19;5082558;28;20458;-67
2022/09/01 11:07:00;;;;;;;1.40;0.80;;;;;;;28.44;22.77;100897.09;5078593;28;20474;-66
2022/09/01 11:09:30;;;;;;;1.63;0.80;;;;;;;27.67;24.29;100896.22;5081024;28;20445;-67
2022/09/01 11:12:27;;;;;;;1.27;0.83;;;;;;;27.26;24.20;100894.34;5080010;28;20487;-67
2022/09/01 11:14:56;;;;;;;1.87;0.80;;;;;;;26.97;24.95;100886.72;5088175;28;20442;-67
2022/09/01 11:17:24;;;;;;;1.60;1.00;;;;;;;27.64;23.21;100885.69;5098446;28;20485;-67
2022/09/01 11:20:08;;;;;;;1.20;0.60;;;;;;;28.24;23.45;100895.56;5101100;28;20438;-68
2022/09/01 11:22:38;;;;;;;2.50;1.10;;;;;;;27.18;24.70;100899.06;5089924;28;20550;-67
2022/09/01 11:25:39;;;;;;;4.50;0.70;;;;;;;25.67;27.46;100898.78;5080206;28;20443;-67
2022/09/01 11:28:36;;;;;;;1.80;0.77;;;;;;;25.40;27.45;100896.28;5079351;28;20442;-68
2022/09/01 11:31:14;;;;;;;1.90;0.80;;;;;;;24.55;27.83;100891.97;5070549;28;21016;-67
2022/09/01 11:33:46;;;;;;;1.73;0.93;;;;;;;25.52;26.88;100899.16;5074074;28;20518;-66
2022/09/01 11:36:22;;;;;;;1.40;0.87;;;;;;;26.48;25.71;100894.16;5078495;28;20481;-65
2022/09/01 11:38:50;;;;;;;1.47;0.70;;;;;;;24.76;27.76;100889.97;5069161;28;20434;-67
2022/09/01 11:41:22;;;;;;;3.07;0.70;;;;;;;24.17;29.54;100897.34;5078708;28;20574;-68
2022/09/01 11:43:53;;;;;;;2.50;0.80;;;;;;;23.84;30.29;100890.06;5075764;28;20464;-67